Time;durP1;ratioP1;P1;durP2;ratioP2;P2;SDS_P1;SDS_P2;PMS_P1;PMS_P2;Temp;Humidity;BMP_temperature;BMP_pressure;BME280_temperature;BME280_humidity;BME280_pressure;Samples;Min_cycle;Max_cycle;Signal;HPM_P1;HPM_P2
2023/05/29 00:02:09;;;;;;;;;9.25;7.25;;;;;;;;5053322;28;45377;-56
2023/05/29 00:04:35;;;;;;;;;11.00;9.75;;;;;;;;5052908;28;45402;-59
2023/05/29 00:07:01;;;;;;;;;11.20;10.20;;;;;;;;5072411;28;45548;-59
2023/05/29 00:09:26;;;;;;;;;9.25;9.25;;;;;;;;5056622;28;46620;-60
2023/05/29 00:11:52;;;;;;;;;9.50;8.50;;;;;;;;5058547;28;45368;-60
2023/05/29 00:14:22;;;;;;;;;8.60;8.40;;;;;;;;5074462;28;45350;-56
2023/05/29 00:16:47;;;;;;;;;11.20;10.20;;;;;;;;5055864;27;45332;-59
2023/05/29 00:19:13;;;;;;;;;10.25;9.50;;;;;;;;5054127;28;46016;-60
2023/05/29 00:21:38;;;;;;;;;14.80;13.40;;;;;;;;5052852;28;45300;-60
2023/05/29 00:24:04;;;;;;;;;13.25;11.50;;;;;;;;5053206;28;45199;-61
2023/05/29 00:26:29;;;;;;;;;11.00;10.75;;;;;;;;5053424;28;45242;-59
2023/05/29 00:28:54;;;;;;;;;13.25;13.25;;;;;;;;5053606;28;45638;-57
2023/05/29 00:31:20;;;;;;;;;12.00;10.25;;;;;;;;5054135;28;45159;-58
2023/05/29 00:33:45;;;;;;;;;13.50;9.00;;;;;;;;5054047;28;45237;-59
2023/05/29 00:36:10;;;;;;;;;11.75;11.25;;;;;;;;5054290;28;45145;-58
2023/05/29 00:38:35;;;;;;;;;9.25;9.00;;;;;;;;5052249;28;47248;-59
2023/05/29 00:41:02;;;;;;;;;9.00;8.00;;;;;;;;5052776;28;45203;-60
2023/05/29 00:43:27;;;;;;;;;13.80;11.80;;;;;;;;5054354;28;45842;-60
2023/05/29 00:45:53;;;;;;;;;15.00;9.50;;;;;;;;5054315;28;45376;-58
2023/05/29 00:48:18;;;;;;;;;13.75;10.00;;;;;;;;5052436;28;45518;-57
2023/05/29 00:50:43;;;;;;;;;14.50;11.00;;;;;;;;5054186;28;45365;-60
2023/05/29 00:53:09;;;;;;;;;14.00;12.25;;;;;;;;5054047;28;45573;-60
2023/05/29 00:55:34;;;;;;;;;11.75;9.25;;;;;;;;5057375;28;45441;-60
2023/05/29 00:58:00;;;;;;;;;12.50;10.25;;;;;;;;5056009;28;45539;-59
2023/05/29 01:00:25;;;;;;;;;11.25;10.00;;;;;;;;5057782;28;45478;-61
2023/05/29 01:02:53;;;;;;;;;9.50;9.50;;;;;;;;5056623;28;45430;-55
2023/05/29 01:05:19;;;;;;;;;11.20;9.20;;;;;;;;5056660;28;45301;-57
2023/05/29 01:07:44;;;;;;;;;14.75;11.00;;;;;;;;5055026;28;47020;-59
2023/05/29 01:10:09;;;;;;;;;8.50;8.50;;;;;;;;5057025;28;45362;-60
2023/05/29 01:12:39;;;;;;;;;13.00;10.75;;;;;;;;5057870;28;45373;-60
2023/05/29 01:15:08;;;;;;;;;8.40;8.40;;;;;;;;5057153;27;45395;-60
2023/05/29 01:17:37;;;;;;;;;12.60;11.00;;;;;;;;5057407;28;45398;-58
2023/05/29 01:20:29;;;;;;;;;12.60;10.20;;;;;;;;5057320;27;45263;-56
2023/05/29 01:22:54;;;;;;;;;11.60;10.40;;;;;;;;5025735;28;45422;-59
2023/05/29 01:25:43;;;;;;;;;10.75;8.50;;;;;;;;5057819;28;45197;-59
2023/05/29 01:28:08;;;;;;;;;13.00;12.00;;;;;;;;5048430;28;45846;-60
2023/05/29 01:30:34;;;;;;;;;11.75;8.50;;;;;;;;5057073;28;45357;-58
2023/05/29 01:32:59;;;;;;;;;10.75;10.75;;;;;;;;5056112;28;45612;-58
2023/05/29 01:35:25;;;;;;;;;10.75;9.00;;;;;;;;5057260;28;45471;-59
2023/05/29 01:37:50;;;;;;;;;10.00;10.00;;;;;;;;5057276;28;45468;-59
2023/05/29 01:40:15;;;;;;;;;8.00;8.00;;;;;;;;5055452;28;45427;-58
2023/05/29 01:42:41;;;;;;;;;13.25;11.75;;;;;;;;5057290;28;45371;-62
2023/05/29 01:45:06;;;;;;;;;9.25;9.25;;;;;;;;5055389;28;45555;-59
2023/05/29 01:47:32;;;;;;;;;11.00;9.50;;;;;;;;5057048;28;45400;-59
2023/05/29 01:49:57;;;;;;;;;13.75;10.75;;;;;;;;5055764;28;45451;-58
2023/05/29 01:52:23;;;;;;;;;12.00;12.00;;;;;;;;5057057;28;45403;-59
2023/05/29 01:54:48;;;;;;;;;13.50;10.75;;;;;;;;5055669;28;45391;-58
2023/05/29 01:57:13;;;;;;;;;12.75;12.25;;;;;;;;5056847;28;46389;-60
2023/05/29 01:59:38;;;;;;;;;12.75;9.75;;;;;;;;5055800;28;45441;-59
2023/05/29 02:02:07;;;;;;;;;13.75;12.00;;;;;;;;5056143;28;45737;-59
2023/05/29 02:04:32;;;;;;;;;8.20;8.00;;;;;;;;5045156;28;45715;-59
2023/05/29 02:06:58;;;;;;;;;17.50;13.00;;;;;;;;5077190;27;45680;-57
2023/05/29 02:09:23;;;;;;;;;11.25;10.00;;;;;;;;5076974;28;45200;-58
2023/05/29 02:11:48;;;;;;;;;12.00;12.00;;;;;;;;5077173;28;45605;-59
2023/05/29 02:14:14;;;;;;;;;15.25;11.00;;;;;;;;5077220;28;45306;-59
2023/05/29 02:16:40;;;;;;;;;13.00;9.25;;;;;;;;5075253;28;47986;-59
2023/05/29 02:19:06;;;;;;;;;10.80;10.40;;;;;;;;5075308;28;45386;-59
2023/05/29 02:21:31;;;;;;;;;9.50;8.50;;;;;;;;5076960;27;45351;-57
2023/05/29 02:23:56;;;;;;;;;10.50;10.50;;;;;;;;5077063;28;45383;-58
2023/05/29 02:26:22;;;;;;;;;10.00;7.50;;;;;;;;5076576;28;46884;-59
2023/05/29 02:28:48;;;;;;;;;11.80;11.60;;;;;;;;5076274;28;45344;-58
2023/05/29 02:31:13;;;;;;;;;14.25;11.75;;;;;;;;5077200;28;45437;-57
2023/05/29 02:33:38;;;;;;;;;17.00;13.00;;;;;;;;5076751;28;45318;-54
2023/05/29 02:36:03;;;;;;;;;11.00;11.00;;;;;;;;5076753;28;46354;-58
2023/05/29 02:38:29;;;;;;;;;10.75;10.50;;;;;;;;5076278;27;45348;-58
2023/05/29 02:40:54;;;;;;;;;11.75;9.25;;;;;;;;5075326;28;45733;-53
2023/05/29 02:43:20;;;;;;;;;13.50;10.25;;;;;;;;5075418;28;45305;-59
2023/05/29 02:45:45;;;;;;;;;14.40;12.60;;;;;;;;5074376;28;47105;-57
2023/05/29 02:48:11;;;;;;;;;11.00;9.50;;;;;;;;5076657;28;45312;-56
2023/05/29 02:50:36;;;;;;;;;9.75;9.75;;;;;;;;5076312;28;45297;-58
2023/05/29 02:53:01;;;;;;;;;16.50;12.00;;;;;;;;5076804;28;45480;-59
2023/05/29 02:55:26;;;;;;;;;12.00;10.25;;;;;;;;5075816;28;46279;-59
2023/05/29 02:57:55;;;;;;;;;12.00;12.00;;;;;;;;5076270;28;45182;-58
2023/05/29 03:00:20;;;;;;;;;14.00;12.00;;;;;;;;5076355;28;45353;-59
2023/05/29 03:02:45;;;;;;;;;12.75;12.00;;;;;;;;5076449;27;45521;-58
2023/05/29 03:05:11;;;;;;;;;16.25;13.75;;;;;;;;5076076;27;45604;-58
2023/05/29 03:07:36;;;;;;;;;13.25;11.25;;;;;;;;5076163;27;45382;-58
2023/05/29 03:10:03;;;;;;;;;9.50;9.50;;;;;;;;5076075;28;45390;-57
2023/05/29 03:12:29;;;;;;;;;10.60;10.00;;;;;;;;5076483;27;45351;-54
2023/05/29 03:14:56;;;;;;;;;14.00;13.00;;;;;;;;5075594;27;46459;-57
2023/05/29 03:17:21;;;;;;;;;10.40;10.40;;;;;;;;5057214;28;45318;-58
2023/05/29 03:19:47;;;;;;;;;12.50;11.00;;;;;;;;5075509;27;45291;-56
2023/05/29 03:22:12;;;;;;;;;10.75;9.75;;;;;;;;5074912;28;45585;-58
2023/05/29 03:24:37;;;;;;;;;10.00;8.50;;;;;;;;5075738;27;45363;-57
2023/05/29 03:27:03;;;;;;;;;11.50;11.50;;;;;;;;5075984;28;45249;-57
2023/05/29 03:29:29;;;;;;;;;13.75;13.00;;;;;;;;5075538;28;45173;-58
2023/05/29 03:31:54;;;;;;;;;10.75;8.75;;;;;;;;5076327;27;45232;-58
2023/05/29 03:34:20;;;;;;;;;9.75;8.75;;;;;;;;5075512;28;45916;-57
2023/05/29 03:36:46;;;;;;;;;10.00;10.00;;;;;;;;5075402;27;45389;-58
2023/05/29 03:39:12;;;;;;;;;13.60;13.60;;;;;;;;5075944;28;45352;-57
2023/05/29 03:41:37;;;;;;;;;11.50;11.50;;;;;;;;5076066;27;45290;-58
2023/05/29 03:44:02;;;;;;;;;13.00;12.25;;;;;;;;5075216;28;46850;-59
2023/05/29 03:46:27;;;;;;;;;11.25;11.00;;;;;;;;5074872;28;45229;-57
2023/05/29 03:48:53;;;;;;;;;13.50;12.50;;;;;;;;5075167;28;45423;-58
2023/05/29 03:51:18;;;;;;;;;15.25;13.25;;;;;;;;5075260;28;45484;-57
2023/05/29 03:53:43;;;;;;;;;13.75;13.00;;;;;;;;5075228;28;45673;-55
2023/05/29 03:56:09;;;;;;;;;13.00;13.00;;;;;;;;5073801;28;45344;-58
2023/05/29 03:58:36;;;;;;;;;15.00;13.00;;;;;;;;5074920;27;45311;-52
2023/05/29 04:01:01;;;;;;;;;14.40;12.80;;;;;;;;5057679;27;45463;-57
2023/05/29 04:03:26;;;;;;;;;20.00;14.50;;;;;;;;5054325;28;45392;-60
2023/05/29 04:05:52;;;;;;;;;12.00;12.00;;;;;;;;5054736;28;45203;-59
2023/05/29 04:08:17;;;;;;;;;12.25;12.25;;;;;;;;5072005;28;45309;-58
2023/05/29 04:10:43;;;;;;;;;11.00;10.00;;;;;;;;5073726;28;45217;-58
2023/05/29 04:13:08;;;;;;;;;15.60;11.20;;;;;;;;5074954;28;46389;-57
2023/05/29 04:15:34;;;;;;;;;13.00;13.00;;;;;;;;5074409;27;45458;-54
2023/05/29 04:17:59;;;;;;;;;13.75;12.00;;;;;;;;5074510;28;45282;-59
2023/05/29 04:20:25;;;;;;;;;13.50;13.50;;;;;;;;5074936;27;45564;-59
2023/05/29 04:22:50;;;;;;;;;11.50;11.00;;;;;;;;5074665;28;45415;-57
2023/05/29 04:25:16;;;;;;;;;15.50;13.75;;;;;;;;5074677;27;45468;-58
2023/05/29 04:27:41;;;;;;;;;14.25;11.25;;;;;;;;5074593;27;45393;-58
2023/05/29 04:30:07;;;;;;;;;18.00;18.00;;;;;;;;5074310;27;45426;-59
2023/05/29 04:32:33;;;;;;;;;13.75;11.00;;;;;;;;5046415;27;47349;-56
2023/05/29 04:35:02;;;;;;;;;12.50;12.00;;;;;;;;5073192;28;45329;-59
2023/05/29 04:37:29;;;;;;;;;13.80;12.40;;;;;;;;5073008;28;45203;-59
2023/05/29 04:39:56;;;;;;;;;14.80;13.60;;;;;;;;5074412;28;45351;-58
2023/05/29 04:42:22;;;;;;;;;19.60;15.60;;;;;;;;5074589;27;46182;-59
2023/05/29 04:44:49;;;;;;;;;16.60;14.20;;;;;;;;5073788;27;45410;-57
2023/05/29 04:47:15;;;;;;;;;16.60;15.20;;;;;;;;5073352;28;45347;-58
2023/05/29 04:49:41;;;;;;;;;13.80;11.00;;;;;;;;5074359;27;45301;-59
2023/05/29 04:52:06;;;;;;;;;15.50;15.50;;;;;;;;5074276;27;46079;-58
2023/05/29 04:54:33;;;;;;;;;17.25;14.50;;;;;;;;5072688;28;45290;-59
2023/05/29 04:56:59;;;;;;;;;17.80;14.20;;;;;;;;5074410;27;45323;-57
2023/05/29 04:59:24;;;;;;;;;19.25;15.75;;;;;;;;5074404;27;45598;-56
2023/05/29 05:01:49;;;;;;;;;15.00;12.50;;;;;;;;5074249;27;46384;-58
2023/05/29 05:04:15;;;;;;;;;18.75;15.00;;;;;;;;5056214;28;45393;-55
2023/05/29 05:06:40;;;;;;;;;14.25;14.25;;;;;;;;5072799;28;45429;-59
2023/05/29 05:09:05;;;;;;;;;15.75;14.75;;;;;;;;5072692;28;45362;-59
2023/05/29 05:11:31;;;;;;;;;16.50;13.75;;;;;;;;5073992;28;46771;-59
2023/05/29 05:13:56;;;;;;;;;16.50;16.25;;;;;;;;5073987;28;45344;-59
2023/05/29 05:16:21;;;;;;;;;20.25;16.50;;;;;;;;5074068;28;45838;-59
2023/05/29 05:18:46;;;;;;;;;16.25;14.00;;;;;;;;5073955;28;45611;-55
2023/05/29 05:21:12;;;;;;;;;14.50;14.50;;;;;;;;5073998;28;45678;-59
2023/05/29 05:23:37;;;;;;;;;15.50;15.50;;;;;;;;5072695;28;45456;-55
2023/05/29 05:26:02;;;;;;;;;17.75;15.75;;;;;;;;5074204;27;45284;-60
2023/05/29 05:28:28;;;;;;;;;14.50;14.50;;;;;;;;5074370;28;45349;-59
2023/05/29 05:30:53;;;;;;;;;14.25;14.25;;;;;;;;5057564;27;46707;-56
2023/05/29 05:33:18;;;;;;;;;21.00;19.00;;;;;;;;5053873;28;45383;-59
2023/05/29 05:35:44;;;;;;;;;20.00;17.50;;;;;;;;5051951;28;45454;-61
2023/05/29 05:38:09;;;;;;;;;19.75;19.50;;;;;;;;5053789;28;45582;-60
2023/05/29 05:40:34;;;;;;;;;18.75;18.75;;;;;;;;5056331;28;46756;-57
2023/05/29 05:42:59;;;;;;;;;16.00;15.00;;;;;;;;5057122;28;45326;-58
2023/05/29 05:45:25;;;;;;;;;20.25;17.50;;;;;;;;5056633;28;45462;-59
2023/05/29 05:47:50;;;;;;;;;24.00;19.00;;;;;;;;5056808;28;45169;-59
2023/05/29 05:50:15;;;;;;;;;15.25;15.25;;;;;;;;5056211;28;45313;-55
2023/05/29 05:52:40;;;;;;;;;14.00;12.25;;;;;;;;5056433;28;45339;-57
2023/05/29 05:55:06;;;;;;;;;18.25;17.25;;;;;;;;5055881;28;45316;-58
2023/05/29 05:57:32;;;;;;;;;15.50;13.50;;;;;;;;5056769;28;45369;-57
2023/05/29 05:59:58;;;;;;;;;22.40;16.40;;;;;;;;5055946;28;46244;-58
2023/05/29 06:02:24;;;;;;;;;17.50;17.50;;;;;;;;5054836;28;45288;-57
2023/05/29 06:04:49;;;;;;;;;20.25;19.00;;;;;;;;5056474;28;45451;-57
2023/05/29 06:07:15;;;;;;;;;18.25;17.25;;;;;;;;5056695;28;45290;-60
2023/05/29 06:09:41;;;;;;;;;17.00;16.00;;;;;;;;5056401;28;46094;-58
2023/05/29 06:12:08;;;;;;;;;17.20;16.20;;;;;;;;5055852;27;45380;-56
2023/05/29 06:14:33;;;;;;;;;19.40;16.60;;;;;;;;5056164;28;45276;-57
2023/05/29 06:16:59;;;;;;;;;17.00;15.25;;;;;;;;5055037;27;45330;-59
2023/05/29 06:19:24;;;;;;;;;16.25;13.75;;;;;;;;5054317;28;46240;-53
2023/05/29 06:21:49;;;;;;;;;14.75;14.75;;;;;;;;5036386;28;45438;-56
2023/05/29 06:24:15;;;;;;;;;18.25;16.50;;;;;;;;5076423;28;45298;-57
2023/05/29 06:26:40;;;;;;;;;22.75;20.75;;;;;;;;5076786;28;45399;-53
2023/05/29 06:29:06;;;;;;;;;21.25;18.25;;;;;;;;5075355;28;45351;-59
2023/05/29 06:31:32;;;;;;;;;21.00;16.75;;;;;;;;5074783;28;45198;-57
2023/05/29 06:33:58;;;;;;;;;19.60;17.00;;;;;;;;5076197;27;45380;-56
2023/05/29 06:36:23;;;;;;;;;17.25;15.00;;;;;;;;5076218;28;45451;-58
2023/05/29 06:38:49;;;;;;;;;17.50;15.00;;;;;;;;5069025;27;46061;-59
2023/05/29 06:41:15;;;;;;;;;17.60;17.60;;;;;;;;5055875;28;45385;-60
2023/05/29 06:43:40;;;;;;;;;17.75;15.25;;;;;;;;5056325;28;45397;-52
2023/05/29 06:46:05;;;;;;;;;15.75;15.75;;;;;;;;5056060;28;45712;-60
2023/05/29 06:48:36;;;;;;;;;14.00;13.00;;;;;;;;5055556;28;45659;-59
2023/05/29 06:51:08;;;;;;;;;20.60;18.20;;;;;;;;5054618;28;45425;-57
2023/05/29 06:53:36;;;;;;;;;16.80;16.60;;;;;;;;5056128;28;45422;-58
2023/05/29 06:56:01;;;;;;;;;16.60;15.60;;;;;;;;5056406;28;45654;-58
2023/05/29 06:58:27;;;;;;;;;19.25;18.25;;;;;;;;5055952;28;45977;-58
2023/05/29 07:00:52;;;;;;;;;18.75;17.00;;;;;;;;5054443;28;45783;-59
2023/05/29 07:03:17;;;;;;;;;17.75;15.50;;;;;;;;5056248;28;45401;-61
2023/05/29 07:05:43;;;;;;;;;17.75;14.75;;;;;;;;5055894;28;45748;-58
2023/05/29 07:08:09;;;;;;;;;16.20;16.00;;;;;;;;5063713;28;45501;-59
2023/05/29 07:10:34;;;;;;;;;17.25;15.50;;;;;;;;5075699;27;45304;-58
2023/05/29 07:13:00;;;;;;;;;17.00;15.50;;;;;;;;5076535;28;45313;-59
2023/05/29 07:15:25;;;;;;;;;17.60;13.80;;;;;;;;5075761;27;45443;-59
2023/05/29 07:17:50;;;;;;;;;20.00;18.25;;;;;;;;5074727;28;45641;-58
2023/05/29 07:20:16;;;;;;;;;21.50;18.75;;;;;;;;5062104;27;45488;-60
2023/05/29 07:22:41;;;;;;;;;20.00;16.75;;;;;;;;5061723;28;45357;-61
2023/05/29 07:25:07;;;;;;;;;20.50;20.50;;;;;;;;5074855;28;45605;-60
2023/05/29 07:27:33;;;;;;;;;18.75;16.50;;;;;;;;5067983;28;46404;-60
2023/05/29 07:29:58;;;;;;;;;17.60;15.80;;;;;;;;5055430;28;45391;-59
2023/05/29 07:32:24;;;;;;;;;14.00;14.00;;;;;;;;5055407;28;45339;-60
2023/05/29 07:34:51;;;;;;;;;22.25;20.00;;;;;;;;5055855;28;45308;-59
2023/05/29 07:37:18;;;;;;;;;15.60;14.40;;;;;;;;5053906;28;45682;-59
2023/05/29 07:39:44;;;;;;;;;21.00;15.60;;;;;;;;5071515;28;45320;-58
2023/05/29 07:42:09;;;;;;;;;18.00;16.00;;;;;;;;5066630;27;45161;-54
2023/05/29 07:44:35;;;;;;;;;19.50;16.75;;;;;;;;5064250;28;45325;-56
2023/05/29 07:47:00;;;;;;;;;19.50;16.50;;;;;;;;5065684;28;45896;-51
2023/05/29 07:49:25;;;;;;;;;16.50;16.50;;;;;;;;5062363;28;45467;-54
2023/05/29 07:51:52;;;;;;;;;17.00;16.20;;;;;;;;5054904;28;45486;-54
2023/05/29 07:54:20;;;;;;;;;17.25;16.25;;;;;;;;5056203;28;45327;-53
2023/05/29 07:56:45;;;;;;;;;15.80;14.40;;;;;;;;5054284;28;45540;-58
2023/05/29 07:59:11;;;;;;;;;19.00;18.00;;;;;;;;5054942;28;45300;-55
2023/05/29 08:01:36;;;;;;;;;19.50;18.75;;;;;;;;5054182;28;45896;-51
2023/05/29 08:04:02;;;;;;;;;21.25;19.75;;;;;;;;5064400;28;45541;-60
2023/05/29 08:06:27;;;;;;;;;17.00;17.00;;;;;;;;5067021;28;45361;-61
2023/05/29 08:08:52;;;;;;;;;16.75;15.50;;;;;;;;5069232;28;45375;-61
2023/05/29 08:11:18;;;;;;;;;19.00;16.50;;;;;;;;5057454;28;45408;-61
2023/05/29 08:13:43;;;;;;;;;16.00;14.00;;;;;;;;5050958;28;45390;-55
2023/05/29 08:16:08;;;;;;;;;19.75;17.25;;;;;;;;5052648;28;45348;-58
2023/05/29 08:18:34;;;;;;;;;18.50;18.25;;;;;;;;5052642;28;45316;-60
2023/05/29 08:20:59;;;;;;;;;18.25;18.25;;;;;;;;5047883;27;45435;-61
2023/05/29 08:23:25;;;;;;;;;17.50;16.25;;;;;;;;5068960;27;45712;-61
2023/05/29 08:25:50;;;;;;;;;18.00;17.25;;;;;;;;5070812;28;46191;-61
2023/05/29 08:28:15;;;;;;;;;19.25;17.50;;;;;;;;5072215;27;45498;-60
2023/05/29 08:30:41;;;;;;;;;16.50;15.50;;;;;;;;5054713;28;45460;-61
2023/05/29 08:33:06;;;;;;;;;16.25;16.25;;;;;;;;5073037;28;45494;-61
2023/05/29 08:35:32;;;;;;;;;17.50;17.50;;;;;;;;5072546;27;47396;-60
2023/05/29 08:37:57;;;;;;;;;17.75;15.00;;;;;;;;5071394;27;45748;-60
2023/05/29 08:40:22;;;;;;;;;18.50;18.00;;;;;;;;5028139;27;45450;-62
2023/05/29 08:42:55;;;;;;;;;22.00;21.50;;;;;;;;5062666;27;45691;-61
2023/05/29 08:45:21;;;;;;;;;16.20;15.20;;;;;;;;5059685;28;45529;-61
2023/05/29 08:47:46;;;;;;;;;20.00;19.00;;;;;;;;5069486;28;45488;-63
2023/05/29 08:50:12;;;;;;;;;15.25;15.25;;;;;;;;5051902;28;45560;-63
2023/05/29 08:52:37;;;;;;;;;17.25;16.50;;;;;;;;5069922;28;45488;-63
2023/05/29 08:55:03;;;;;;;;;19.75;19.00;;;;;;;;5066144;28;46437;-62
2023/05/29 08:57:28;;;;;;;;;20.40;18.20;;;;;;;;5062495;28;45824;-62
2023/05/29 08:59:54;;;;;;;;;22.00;16.75;;;;;;;;5069434;28;45395;-63
2023/05/29 09:02:19;;;;;;;;;15.75;14.00;;;;;;;;5069915;28;45737;-64
2023/05/29 09:04:45;;;;;;;;;18.75;18.75;;;;;;;;5067578;28;45630;-62
2023/05/29 09:07:14;;;;;;;;;17.50;17.50;;;;;;;;5070734;28;45452;-60
2023/05/29 09:09:39;;;;;;;;;17.80;17.20;;;;;;;;5069746;27;45446;-62
2023/05/29 09:12:05;;;;;;;;;22.25;20.50;;;;;;;;5069402;28;45713;-59
2023/05/29 09:14:36;;;;;;;;;25.50;23.25;;;;;;;;5070516;28;46381;-54
2023/05/29 09:17:02;;;;;;;;;20.20;16.80;;;;;;;;5070589;28;45389;-59
2023/05/29 09:19:27;;;;;;;;;23.20;17.20;;;;;;;;5073893;27;45326;-63
2023/05/29 09:21:59;;;;;;;;;21.50;16.50;;;;;;;;5075908;27;45556;-63
2023/05/29 09:24:25;;;;;;;;;23.60;21.00;;;;;;;;5054524;27;47815;-62
2023/05/29 09:26:50;;;;;;;;;25.75;21.00;;;;;;;;5063247;28;46020;-66
2023/05/29 09:29:15;;;;;;;;;21.50;19.75;;;;;;;;5074711;28;45399;-60
2023/05/29 09:31:46;;;;;;;;;25.00;22.00;;;;;;;;5068846;28;45333;-55
2023/05/29 09:34:11;;;;;;;;;24.60;21.80;;;;;;;;5076121;28;45730;-61
2023/05/29 09:36:37;;;;;;;;;19.75;18.25;;;;;;;;5072884;28;45375;-60
2023/05/29 09:39:03;;;;;;;;;20.50;19.50;;;;;;;;5074370;27;45682;-62
2023/05/29 09:41:28;;;;;;;;;20.00;18.75;;;;;;;;5064818;27;45452;-61
2023/05/29 09:43:54;;;;;;;;;28.75;23.25;;;;;;;;5074314;27;46154;-59
2023/05/29 09:46:20;;;;;;;;;19.60;17.20;;;;;;;;5072379;28;45513;-61
2023/05/29 09:48:45;;;;;;;;;18.00;15.75;;;;;;;;5072138;28;45511;-61
2023/05/29 09:51:23;;;;;;;;;21.50;17.25;;;;;;;;5073941;28;45320;-62
2023/05/29 09:53:50;;;;;;;;;21.20;21.20;;;;;;;;5074411;28;46268;-63
2023/05/29 09:56:17;;;;;;;;;21.00;19.40;;;;;;;;5074503;28;45399;-62
2023/05/29 09:58:46;;;;;;;;;21.80;18.60;;;;;;;;5072061;27;45495;-63
2023/05/29 10:01:12;;;;;;;;;19.80;19.40;;;;;;;;5054837;27;45717;-61
2023/05/29 10:03:38;;;;;;;;;19.00;19.00;;;;;;;;5057293;27;46238;-61
2023/05/29 10:06:03;;;;;;;;;20.00;19.25;;;;;;;;5054483;27;45333;-63
2023/05/29 10:08:29;;;;;;;;;22.00;19.75;;;;;;;;5045226;28;45547;-63
2023/05/29 10:10:57;;;;;;;;;17.50;15.25;;;;;;;;5061832;27;45365;-63
2023/05/29 10:13:24;;;;;;;;;19.20;19.20;;;;;;;;5072181;27;46306;-61
2023/05/29 10:15:51;;;;;;;;;21.60;21.60;;;;;;;;5058079;27;45635;-62
2023/05/29 10:18:19;;;;;;;;;22.20;21.60;;;;;;;;5054215;27;45397;-60
2023/05/29 10:20:45;;;;;;;;;24.20;20.60;;;;;;;;5053283;27;45420;-62
2023/05/29 10:23:10;;;;;;;;;22.25;20.50;;;;;;;;5052540;27;46366;-61
2023/05/29 10:25:35;;;;;;;;;22.25;19.50;;;;;;;;5054043;27;45491;-61
2023/05/29 10:28:01;;;;;;;;;18.25;17.50;;;;;;;;5054284;27;45481;-64
2023/05/29 10:30:32;;;;;;;;;25.75;22.75;;;;;;;;5052350;27;45626;-62
2023/05/29 10:33:16;;;;;;;;;29.20;25.60;;;;;;;;5052858;27;46736;-63
2023/05/29 10:35:46;;;;;;;;;28.20;22.80;;;;;;;;5058522;27;45407;-57
2023/05/29 10:38:12;;;;;;;;;20.40;17.80;;;;;;;;5055466;27;45809;-63
2023/05/29 10:40:38;;;;;;;;;24.40;22.20;;;;;;;;5043183;27;46027;-61
2023/05/29 10:43:04;;;;;;;;;23.75;19.75;;;;;;;;5053846;27;46382;-63
2023/05/29 10:45:32;;;;;;;;;19.80;15.80;;;;;;;;5052384;28;45902;-62
2023/05/29 10:48:07;;;;;;;;;24.40;22.80;;;;;;;;5056932;27;45484;-62
2023/05/29 10:50:40;;;;;;;;;22.20;20.60;;;;;;;;5053329;28;45592;-62
2023/05/29 10:53:11;;;;;;;;;25.80;24.60;;;;;;;;5053865;28;46868;-63
2023/05/29 10:55:37;;;;;;;;;28.40;25.40;;;;;;;;5053685;27;45560;-61
2023/05/29 10:58:08;;;;;;;;;14.00;14.00;;;;;;;;5053843;28;45377;-61
2023/05/29 11:00:34;;;;;;;;;26.80;24.20;;;;;;;;5052535;28;45780;-60
2023/05/29 11:03:06;;;;;;;;;20.50;20.50;;;;;;;;5054132;28;45814;-63
2023/05/29 11:05:32;;;;;;;;;23.00;22.00;;;;;;;;5053956;28;45690;-61
2023/05/29 11:07:58;;;;;;;;;25.00;20.75;;;;;;;;5057783;28;45427;-62
2023/05/29 11:10:43;;;;;;;;;23.00;20.60;;;;;;;;5071475;28;45594;-61
2023/05/29 11:13:08;;;;;;;;;19.40;19.40;;;;;;;;5072916;28;45872;-66
2023/05/29 11:15:34;;;;;;;;;20.25;17.25;;;;;;;;5074505;28;45301;-63
2023/05/29 11:18:06;;;;;;;;;20.00;18.75;;;;;;;;5073020;28;45352;-64
2023/05/29 11:20:49;;;;;;;;;27.60;22.60;;;;;;;;5074269;28;45485;-61
2023/05/29 11:23:17;;;;;;;;;18.80;18.20;;;;;;;;5074192;27;47612;-63
2023/05/29 11:25:43;;;;;;;;;21.80;21.80;;;;;;;;5073978;27;45418;-61
2023/05/29 11:28:10;;;;;;;;;19.00;19.00;;;;;;;;5074343;27;45363;-61
2023/05/29 11:30:48;;;;;;;;;19.60;19.00;;;;;;;;5074136;28;45333;-62
2023/05/29 11:33:33;;;;;;;;;25.20;21.20;;;;;;;;5074094;28;46281;-62
2023/05/29 11:35:59;;;;;;;;;20.20;17.60;;;;;;;;5073533;28;45382;-64
2023/05/29 11:38:25;;;;;;;;;27.00;24.25;;;;;;;;5073080;27;45465;-62
2023/05/29 11:40:51;;;;;;;;;27.80;24.00;;;;;;;;5063322;27;45612;-62
2023/05/29 11:43:17;;;;;;;;;18.00;17.50;;;;;;;;5072810;28;48711;-61
2023/05/29 11:45:42;;;;;;;;;16.60;16.60;;;;;;;;5073790;28;45422;-61
2023/05/29 11:48:07;;;;;;;;;22.00;18.50;;;;;;;;5073944;28;45463;-62
2023/05/29 11:50:33;;;;;;;;;21.25;18.50;;;;;;;;5074351;28;45627;-55
2023/05/29 11:52:59;;;;;;;;;18.00;16.25;;;;;;;;5074456;28;45965;-62
2023/05/29 11:55:24;;;;;;;;;17.75;15.50;;;;;;;;5073046;28;45875;-57
2023/05/29 11:57:50;;;;;;;;;18.25;16.75;;;;;;;;5074904;27;45749;-58
2023/05/29 12:00:15;;;;;;;;;18.75;18.00;;;;;;;;5073143;28;45436;-61
2023/05/29 12:02:46;;;;;;;;;20.00;18.00;;;;;;;;5073978;27;45791;-61
2023/05/29 12:05:14;;;;;;;;;19.60;17.60;;;;;;;;5060012;27;45792;-61
2023/05/29 12:07:46;;;;;;;;;22.20;19.00;;;;;;;;5053187;28;45397;-57
2023/05/29 12:10:11;;;;;;;;;17.80;16.80;;;;;;;;5065571;28;45277;-59
2023/05/29 12:12:37;;;;;;;;;20.50;17.25;;;;;;;;5071155;28;48576;-61
2023/05/29 12:15:05;;;;;;;;;19.75;17.75;;;;;;;;5073338;28;45328;-56
2023/05/29 12:17:30;;;;;;;;;21.60;20.60;;;;;;;;5073834;27;45447;-62
2023/05/29 12:19:56;;;;;;;;;19.00;18.75;;;;;;;;5074621;27;45536;-60
2023/05/29 12:22:36;;;;;;;;;19.50;18.25;;;;;;;;5072025;28;45596;-56
2023/05/29 12:25:09;;;;;;;;;16.80;15.20;;;;;;;;5072457;28;45432;-61
2023/05/29 12:27:41;;;;;;;;;17.20;16.60;;;;;;;;5073942;27;45350;-60
2023/05/29 12:30:10;;;;;;;;;19.20;15.20;;;;;;;;5074462;27;45435;-61
2023/05/29 12:32:36;;;;;;;;;17.00;14.60;;;;;;;;5072435;28;47112;-61
2023/05/29 12:35:03;;;;;;;;;14.25;14.25;;;;;;;;5073993;27;45669;-61
2023/05/29 12:37:29;;;;;;;;;21.20;18.20;;;;;;;;5073808;27;45332;-61
2023/05/29 12:40:11;;;;;;;;;17.60;17.60;;;;;;;;5073995;27;45387;-61
2023/05/29 12:42:39;;;;;;;;;16.60;14.60;;;;;;;;5027256;27;46712;-60
2023/05/29 12:45:07;;;;;;;;;15.80;13.00;;;;;;;;5069861;28;45426;-62
2023/05/29 12:47:32;;;;;;;;;14.20;13.20;;;;;;;;5074472;27;45399;-62
2023/05/29 12:49:57;;;;;;;;;11.00;11.00;;;;;;;;5080681;28;45485;-59
2023/05/29 12:52:23;;;;;;;;;13.00;12.00;;;;;;;;5079848;28;46043;-57
2023/05/29 12:54:48;;;;;;;;;11.50;11.50;;;;;;;;5080165;27;45439;-61
2023/05/29 12:57:14;;;;;;;;;12.00;12.00;;;;;;;;5080706;27;45898;-59
2023/05/29 12:59:40;;;;;;;;;12.25;11.25;;;;;;;;5080421;27;45300;-60
2023/05/29 13:02:07;;;;;;;;;14.60;10.80;;;;;;;;5078544;28;46708;-59
2023/05/29 13:04:33;;;;;;;;;9.60;9.00;;;;;;;;5080698;27;45513;-54
2023/05/29 13:06:58;;;;;;;;;8.25;8.25;;;;;;;;5079054;28;45337;-53
2023/05/29 13:09:24;;;;;;;;;8.25;8.25;;;;;;;;5080552;27;45360;-59
2023/05/29 13:11:49;;;;;;;;;10.50;9.50;;;;;;;;5080056;28;46709;-59
2023/05/29 13:14:14;;;;;;;;;9.75;7.75;;;;;;;;5078629;28;45381;-60
2023/05/29 13:16:40;;;;;;;;;8.25;8.25;;;;;;;;5075820;28;45275;-54
2023/05/29 13:19:06;;;;;;;;;12.50;9.75;;;;;;;;5058655;28;45360;-57
2023/05/29 13:21:32;;;;;;;;;8.80;8.40;;;;;;;;5059379;28;45285;-59
2023/05/29 13:23:57;;;;;;;;;8.20;8.20;;;;;;;;5059578;28;45416;-61
2023/05/29 13:26:23;;;;;;;;;9.00;9.00;;;;;;;;5048757;28;45460;-59
2023/05/29 13:28:48;;;;;;;;;10.25;8.75;;;;;;;;5077020;27;45512;-59
2023/05/29 13:31:13;;;;;;;;;9.25;8.00;;;;;;;;5078183;28;47281;-58
2023/05/29 13:33:39;;;;;;;;;6.75;6.75;;;;;;;;5076192;28;45361;-62
2023/05/29 13:36:05;;;;;;;;;7.75;7.25;;;;;;;;5078185;28;45474;-58
2023/05/29 13:38:30;;;;;;;;;8.40;6.80;;;;;;;;5078205;27;45443;-55
2023/05/29 13:40:55;;;;;;;;;9.50;8.00;;;;;;;;5064865;27;48675;-62
2023/05/29 13:43:20;;;;;;;;;6.75;6.75;;;;;;;;5077942;28;45906;-60
2023/05/29 13:45:46;;;;;;;;;7.25;7.00;;;;;;;;5078190;28;45468;-59
2023/05/29 13:48:11;;;;;;;;;7.00;7.00;;;;;;;;5076828;27;45535;-59
2023/05/29 13:50:36;;;;;;;;;7.75;5.50;;;;;;;;5053367;28;45440;-60
2023/05/29 13:53:02;;;;;;;;;6.25;6.25;;;;;;;;5038755;28;45433;-56
2023/05/29 13:55:27;;;;;;;;;6.00;6.00;;;;;;;;5067398;28;45351;-59
2023/05/29 13:57:52;;;;;;;;;6.00;6.00;;;;;;;;5065751;28;45652;-58
2023/05/29 14:00:18;;;;;;;;;8.25;7.50;;;;;;;;5065270;27;47613;-59
2023/05/29 14:02:43;;;;;;;;;8.00;6.00;;;;;;;;5064672;28;45474;-60
2023/05/29 14:05:10;;;;;;;;;10.00;9.00;;;;;;;;5062784;28;45595;-62
2023/05/29 14:07:36;;;;;;;;;8.40;6.20;;;;;;;;5053485;28;45405;-60
2023/05/29 14:10:01;;;;;;;;;5.25;4.00;;;;;;;;5063962;28;45574;-62
2023/05/29 14:12:26;;;;;;;;;5.00;5.00;;;;;;;;5063657;27;45259;-63
2023/05/29 14:14:51;;;;;;;;;7.25;6.00;;;;;;;;5061807;28;45628;-61
2023/05/29 14:17:17;;;;;;;;;7.00;7.00;;;;;;;;5070542;28;45806;-62